Huntington Beach, California
Current Conditions -  °F | °C
As of 5:53 PM on Wednesday 17 Dec 2014 (Local Time) from KSNA Reporting Station
Overcast Overcast  
Wind Chill: 17°   Ceiling: 8000
Heat Index: 17°   Visibility: 10mi
Dew Point:   Wind: 0mph
Humidity: 52%   Direction: NA
Pressure: 30.08"   Gusts: NA
Location:  33.68°N, 118°W
Report Text: KSNA 180153Z 00000KT 10SM FEW020 SCT045 BKN080 OVC250 17/07 A3008 RMK AO2 SLP186 T01720072
Loading
Personal Weather Stations






























Interactive Weather Map New forecast layout! Learn more

10-Day Weather Forecast

Advertisements
Track Severe Weather on mobile